Time;durP1;ratioP1;P1;durP2;ratioP2;P2;SDS_P1;SDS_P2;PMS_P1;PMS_P2;Temp;Humidity;BMP_temperature;BMP_pressure;BME280_temperature;BME280_humidity;BME280_pressure;Samples;Min_cycle;Max_cycle;Signal;HPM_P1;HPM_P2
2022/11/01 00:02:23;;;;;;;11.48;4.85;;;;;;;1.33;100.00;100237.42;1720224;82;21105;-67
2022/11/01 00:04:49;;;;;;;8.10;3.75;;;;;;;1.36;100.00;100234.33;1720061;82;21019;-67
2022/11/01 00:07:16;;;;;;;8.75;4.22;;;;;;;1.36;100.00;100228.97;1720648;82;21401;-66
2022/11/01 00:09:42;;;;;;;9.13;4.15;;;;;;;1.32;100.00;100228.22;1722792;82;20994;-66
2022/11/01 00:12:09;;;;;;;9.63;4.05;;;;;;;1.25;100.00;100227.36;1725443;82;21062;-67
2022/11/01 00:14:36;;;;;;;8.68;4.22;;;;;;;1.25;100.00;100227.36;1741229;82;20979;-67
2022/11/01 00:17:02;;;;;;;8.28;4.17;;;;;;;1.26;100.00;100227.68;1722639;82;21024;-66
2022/11/01 00:19:30;;;;;;;7.83;3.60;;;;;;;1.24;100.00;100222.50;1718553;82;20967;-67
2022/11/01 00:21:57;;;;;;;15.40;4.28;;;;;;;1.23;100.00;100227.58;1722454;82;21695;-67
2022/11/01 00:24:24;;;;;;;9.25;4.12;;;;;;;1.24;100.00;100220.36;1719016;82;20951;-67
2022/11/01 00:26:50;;;;;;;;;;;;;;;1.28;100.00;100226.45;1720909;81;21106;-66
2022/11/01 00:29:17;;;;;;;10.40;4.60;;;;;;;1.28;100.00;100220.25;1736091;81;20399;-66
2022/11/01 00:31:43;;;;;;;10.18;4.50;;;;;;;1.16;100.00;100226.72;1727754;81;21036;-66
2022/11/01 00:34:10;;;;;;;;;;;;;;;1.11;100.00;100226.48;1734634;81;21488;-66
2022/11/01 00:36:36;;;;;;;9.58;5.05;;;;;;;1.11;100.00;100232.34;1736141;81;20566;-66
2022/11/01 00:39:03;;;;;;;8.55;4.33;;;;;;;1.04;100.00;100228.30;1745011;81;21819;-66
2022/11/01 00:41:29;;;;;;;13.15;5.60;;;;;;;1.03;100.00;100223.95;1728037;81;21042;-67
2022/11/01 00:43:56;;;;;;;9.93;4.97;;;;;;;1.08;100.00;100234.92;1732889;81;21030;-66
2022/11/01 00:46:23;;;;;;;10.90;4.67;;;;;;;1.08;100.00;100234.09;1724628;81;21061;-66
2022/11/01 00:48:49;;;;;;;10.95;4.10;;;;;;;1.03;100.00;100234.67;1724335;83;20979;-67
2022/11/01 00:51:16;;;;;;;9.05;4.30;;;;;;;0.96;100.00;100233.30;1731853;81;21109;-66
2022/11/01 00:53:42;;;;;;;9.68;5.03;;;;;;;0.94;100.00;100235.36;1705887;81;21007;-66
2022/11/01 00:56:09;;;;;;;8.05;4.17;;;;;;;0.93;100.00;100236.38;1726481;81;21043;-66
2022/11/01 00:58:36;;;;;;;8.23;4.33;;;;;;;0.92;100.00;100237.94;1724185;81;21435;-66
2022/11/01 01:01:03;;;;;;;11.53;4.62;;;;;;;0.96;100.00;100231.95;1729270;80;21558;-66
2022/11/01 01:03:29;;;;;;;10.70;4.05;;;;;;;0.95;100.00;100225.47;1730823;81;21009;-66
2022/11/01 01:05:56;;;;;;;8.40;4.25;;;;;;;0.88;100.00;100233.48;1715571;82;22018;-66
2022/11/01 01:08:23;;;;;;;7.33;3.87;;;;;;;0.81;100.00;100231.27;1713792;83;21034;-66
2022/11/01 01:10:49;;;;;;;;;;;;;;;0.81;100.00;100237.14;1675103;85;21819;-66
2022/11/01 01:13:16;;;;;;;8.38;4.42;;;;;;;0.77;100.00;100237.21;1670391;85;20411;-66
2022/11/01 01:15:44;;;;;;;8.78;4.12;;;;;;;0.70;100.00;100230.98;1670303;85;21085;-66
2022/11/01 01:18:11;;;;;;;9.85;4.37;;;;;;;0.65;100.00;100227.54;1678207;85;20979;-66
2022/11/01 01:20:37;;;;;;;11.28;4.58;;;;;;;0.63;100.00;100232.79;1680928;84;21760;-66
2022/11/01 01:23:04;;;;;;;9.63;4.50;;;;;;;0.60;100.00;100235.36;1674029;84;21064;-66
2022/11/01 01:25:30;;;;;;;9.00;4.47;;;;;;;0.59;100.00;100231.02;1690403;84;20987;-66
2022/11/01 01:27:58;;;;;;;9.65;4.55;;;;;;;0.56;100.00;100230.06;1668715;84;21019;-66
2022/11/01 01:30:24;;;;;;;13.35;4.78;;;;;;;0.57;100.00;100229.56;1663531;85;21008;-66
2022/11/01 01:32:51;;;;;;;12.78;4.58;;;;;;;0.54;100.00;100225.91;1658031;85;21075;-66
2022/11/01 01:35:18;;;;;;;;;;;;;;;0.55;100.00;100239.12;1666165;84;21640;-66
2022/11/01 01:37:45;;;;;;;11.00;4.62;;;;;;;0.53;100.00;100226.95;1659286;85;20130;-66
2022/11/01 01:40:11;;;;;;;9.60;4.12;;;;;;;0.54;100.00;100233.44;1654771;85;20994;-66
2022/11/01 01:42:41;;;;;;;12.60;4.60;;;;;;;0.57;100.00;100235.72;1666862;84;21079;-66
2022/11/01 01:45:22;;;;;;;14.55;4.35;;;;;;;0.53;100.00;100233.65;1667936;85;21052;-67
2022/11/01 01:47:51;;;;;;;12.18;4.42;;;;;;;0.48;100.00;100227.52;1663681;85;21016;-66
2022/11/01 01:50:26;;;;;;;9.80;4.17;;;;;;;0.50;100.00;100229.48;1662163;83;20995;-66
2022/11/01 01:53:05;;;;;;;8.58;4.00;;;;;;;0.57;100.00;100238.94;1667976;84;21023;-66
2022/11/01 01:55:37;;;;;;;10.43;4.45;;;;;;;0.52;100.00;100234.16;1725190;82;21026;-66
2022/11/01 01:58:04;;;;;;;11.45;4.72;;;;;;;0.46;100.00;100233.60;1722290;82;20999;-66
2022/11/01 02:00:31;;;;;;;11.18;4.83;;;;;;;0.40;100.00;100235.70;1708828;82;20979;-66
2022/11/01 02:02:57;;;;;;;11.25;4.33;;;;;;;0.38;100.00;100231.05;1682713;84;21078;-66
2022/11/01 02:05:38;;;;;;;9.78;4.70;;;;;;;0.33;100.00;100237.48;1693593;82;21027;-66
2022/11/01 02:08:06;;;;;;;10.18;4.40;;;;;;;0.32;100.00;100231.84;1687681;84;21023;-66
2022/11/01 02:10:33;;;;;;;8.93;4.40;;;;;;;0.28;100.00;100230.06;1695187;82;21042;-65
2022/11/01 02:13:00;;;;;;;;;;;;;;;0.34;100.00;100229.28;1700882;83;21027;-66
2022/11/01 02:15:32;;;;;;;6.70;3.55;;;;;;;0.37;100.00;100229.39;1649354;85;20108;-66
2022/11/01 02:18:28;;;;;;;9.23;3.60;;;;;;;0.23;100.00;100231.14;1674394;84;21485;-65
2022/11/01 02:21:39;;;;;;;6.20;3.08;;;;;;;0.19;100.00;100235.22;1670809;84;21509;-66
2022/11/01 02:24:30;;;;;;;7.15;3.25;;;;;;;0.18;100.00;100242.12;1677088;84;21007;-66
2022/11/01 02:27:08;;;;;;;7.05;3.45;;;;;;;0.21;100.00;100244.41;1676720;84;21083;-66
2022/11/01 02:30:09;;;;;;;8.13;3.50;;;;;;;0.30;100.00;100249.42;1691078;84;21033;-66
2022/11/01 02:33:00;;;;;;;8.25;3.87;;;;;;;0.29;100.00;100245.08;1661820;85;21554;-66
2022/11/01 02:36:01;;;;;;;8.00;3.55;;;;;;;0.24;100.00;100252.05;1728256;82;21577;-65
2022/11/01 02:38:52;;;;;;;10.03;4.00;;;;;;;0.23;100.00;100249.05;1722731;82;21032;-66
2022/11/01 02:41:49;;;;;;;9.00;4.12;;;;;;;0.30;100.00;100252.11;1726861;82;21023;-66
2022/11/01 02:44:25;;;;;;;8.13;4.12;;;;;;;0.28;100.00;100249.31;1731747;82;20983;-65
2022/11/01 02:47:00;;;;;;;11.20;4.28;;;;;;;0.22;100.00;100256.75;1712205;82;21042;-66
2022/11/01 02:49:47;;;;;;;8.45;3.80;;;;;;;0.23;100.00;100257.91;1721847;82;21358;-66
2022/11/01 02:52:20;;;;;;;7.55;3.70;;;;;;;0.29;100.00;100262.48;1732288;80;21102;-66
2022/11/01 02:55:02;;;;;;;7.75;3.20;;;;;;;0.28;100.00;100263.53;1670511;84;21294;-65
2022/11/01 02:57:38;;;;;;;6.00;3.25;;;;;;;0.24;100.00;100264.94;1684659;84;21054;-66
2022/11/01 03:00:20;;;;;;;6.03;3.17;;;;;;;0.20;100.00;100258.81;1703798;82;20953;-65
2022/11/01 03:02:47;;;;;;;9.20;3.27;;;;;;;0.22;100.00;100273.66;1703399;82;21452;-65
2022/11/01 03:05:53;;;;;;;7.97;3.10;;;;;;;0.21;100.00;100271.19;1726629;82;21348;-65
2022/11/01 03:08:23;;;;;;;8.78;3.25;;;;;;;0.24;100.00;100260.92;1736839;82;21019;-66
2022/11/01 03:11:09;;;;;;;9.45;3.12;;;;;;;0.25;100.00;100267.11;1723845;82;21063;-66
2022/11/01 03:14:14;;;;;;;9.80;3.20;;;;;;;0.33;100.00;100264.27;1717044;82;21071;-66
2022/11/01 03:16:53;;;;;;;7.75;2.80;;;;;;;0.32;100.00;100268.80;1721901;82;21022;-66
2022/11/01 03:20:03;;;;;;;8.23;3.40;;;;;;;0.22;100.00;100268.80;1719374;82;20980;-66
2022/11/01 03:22:43;;;;;;;6.12;2.80;;;;;;;0.20;100.00;100271.69;1718308;82;21045;-66
2022/11/01 03:25:38;;;;;;;8.33;3.22;;;;;;;0.27;100.00;100271.75;1723816;82;21073;-66
2022/11/01 03:28:35;;;;;;;9.45;2.80;;;;;;;0.26;100.00;100268.23;1724351;81;21028;-66
2022/11/01 03:31:22;;;;;;;8.25;3.17;;;;;;;0.17;100.00;100271.24;1699233;83;21084;-66
2022/11/01 03:33:58;;;;;;;7.05;3.00;;;;;;;0.12;100.00;100268.30;1721254;81;21096;-66
2022/11/01 03:36:30;;;;;;;5.22;2.80;;;;;;;0.11;100.00;100275.50;1743505;81;21046;-66
2022/11/01 03:39:02;;;;;;;7.65;3.30;;;;;;;0.10;100.00;100266.34;1727493;82;21054;-65
2022/11/01 03:41:33;;;;;;;8.58;3.12;;;;;;;0.15;100.00;100270.59;1728604;81;21121;-66
2022/11/01 03:44:00;;;;;;;8.85;3.40;;;;;;;0.14;100.00;100271.63;1724584;81;20985;-66
2022/11/01 03:46:26;;;;;;;6.92;3.08;;;;;;;0.08;100.00;100271.03;1726986;81;21089;-66
2022/11/01 03:48:53;;;;;;;7.20;3.20;;;;;;;0.06;100.00;100273.92;1734343;81;20982;-66
2022/11/01 03:51:21;;;;;;;5.60;2.77;;;;;;;0.05;100.00;100273.59;1732422;82;21476;-65
2022/11/01 03:53:47;;;;;;;6.03;2.50;;;;;;;0.02;100.00;100274.48;1720332;81;21022;-66
2022/11/01 03:56:14;;;;;;;;;;;;;;;0.05;100.00;100272.25;1704158;82;21079;-65
2022/11/01 03:58:42;;;;;;;9.03;3.30;;;;;;;0.07;100.00;100272.91;1729301;81;20122;-66
2022/11/01 04:01:11;;;;;;;10.23;3.45;;;;;;;-0.03;100.00;100273.70;1740341;81;21476;-66
2022/11/01 04:03:38;;;;;;;7.72;3.67;;;;;;;-0.10;100.00;100274.15;1728669;81;21025;-66
2022/11/01 04:06:04;;;;;;;8.05;3.12;;;;;;;-0.10;100.00;100280.84;1721347;81;21003;-66
2022/11/01 04:08:31;;;;;;;7.70;3.30;;;;;;;-0.09;100.00;100283.34;1714702;82;21070;-66
2022/11/01 04:10:59;;;;;;;8.00;2.60;;;;;;;-0.08;100.00;100278.82;1724713;81;21524;-66
2022/11/01 04:13:25;;;;;;;7.70;2.90;;;;;;;-0.11;100.00;100281.88;1726671;81;21000;-66
2022/11/01 04:21:17;;;;;;;7.47;3.50;;;;;;;-0.04;100.00;100284.12;1722983;81;21328;-66
2022/11/01 04:23:43;;;;;;;10.25;3.90;;;;;;;-0.04;100.00;100284.12;1725163;82;21636;-66
2022/11/01 04:26:12;;;;;;;8.80;4.10;;;;;;;-0.07;100.00;100289.83;1730838;82;21062;-66
2022/11/01 04:28:39;;;;;;;9.65;4.15;;;;;;;-0.08;100.00;100293.54;1721444;82;21061;-66
2022/11/01 04:31:06;;;;;;;8.83;4.08;;;;;;;-0.03;100.00;100288.43;1724656;82;21079;-66
2022/11/01 04:33:33;;;;;;;7.75;3.98;;;;;;;0.02;100.00;100292.72;1731559;82;21066;-66
2022/11/01 04:36:05;;;;;;;11.20;4.55;;;;;;;0.02;100.00;100292.72;1732433;81;21074;-65
2022/11/01 04:38:31;;;;;;;7.55;4.37;;;;;;;-0.03;100.00;100286.59;1727336;82;21561;-65
2022/11/01 04:40:58;;;;;;;10.80;5.37;;;;;;;-0.05;100.00;100286.47;1714995;82;21063;-65
2022/11/01 04:43:24;;;;;;;15.40;8.20;;;;;;;-0.02;100.00;100295.45;1715536;82;21075;-65
2022/11/01 04:45:56;;;;;;;18.23;10.72;;;;;;;0.02;100.00;100291.88;1722648;81;21082;-65
2022/11/01 04:48:22;;;;;;;17.90;10.10;;;;;;;0.01;100.00;100293.73;1721722;82;21106;-65
2022/11/01 04:50:49;;;;;;;18.50;9.45;;;;;;;-0.03;100.00;100295.95;1680060;84;21074;-65
2022/11/01 04:53:15;;;;;;;14.25;8.50;;;;;;;-0.05;100.00;100296.66;1679661;85;21098;-65
2022/11/01 09:29:17;;;;;;;6.78;2.33;;;;;;;8.13;100.00;100204.41;1788147;78;22656;-73
2022/11/01 09:31:44;;;;;;;6.37;2.17;;;;;;;8.25;100.00;100213.31;1765523;80;21054;-73
2022/11/01 09:34:11;;;;;;;4.85;1.80;;;;;;;8.47;100.00;100197.96;1760696;80;21038;-74
2022/11/01 09:36:38;;;;;;;4.22;1.98;;;;;;;8.62;100.00;100196.56;1758426;80;21067;-73
2022/11/01 09:39:05;;;;;;;;;;;;;;;8.76;100.00;100191.08;1763527;80;21125;-73
2022/11/01 09:41:36;;;;;;;3.87;1.70;;;;;;;8.88;100.00;100185.84;1760503;80;20106;-73
2022/11/01 09:44:04;;;;;;;6.58;1.50;;;;;;;8.98;100.00;100188.70;1764066;80;20999;-74
2022/11/01 09:46:45;;;;;;;3.75;2.00;;;;;;;9.15;100.00;100179.67;1761649;80;21566;-74
2022/11/01 09:49:14;;;;;;;6.25;2.40;;;;;;;9.24;100.00;100179.55;1753366;80;21043;-75
2022/11/01 09:51:41;;;;;;;5.00;1.70;;;;;;;9.36;100.00;100174.78;1710912;83;21072;-75
2022/11/01 09:54:08;;;;;;;5.95;2.55;;;;;;;9.43;100.00;100175.42;1683406;84;21012;-74
2022/11/01 09:56:41;;;;;;;6.83;2.35;;;;;;;9.54;100.00;100178.55;1690104;85;21039;-74
2022/11/01 09:59:31;;;;;;;6.40;2.90;;;;;;;9.73;100.00;100174.95;1667887;85;21085;-74
2022/11/01 10:02:34;;;;;;;8.43;2.50;;;;;;;9.89;100.00;100173.49;1691747;84;21450;-74
2022/11/01 10:05:35;;;;;;;4.62;2.12;;;;;;;9.99;100.00;100174.12;1696793;83;21126;-75
2022/11/01 10:08:42;;;;;;;4.83;1.95;;;;;;;9.98;100.00;100169.25;1709361;83;21113;-74
2022/11/01 10:11:45;;;;;;;5.28;1.75;;;;;;;10.05;100.00;100163.59;1708348;83;21030;-73
2022/11/01 10:14:25;;;;;;;4.03;1.77;;;;;;;10.07;100.00;100161.95;1710218;82;21406;-73
2022/11/01 10:17:13;;;;;;;5.00;1.57;;;;;;;10.05;100.00;100146.45;1712258;83;21073;-73
2022/11/01 10:19:48;;;;;;;5.85;1.92;;;;;;;10.11;100.00;100142.16;1709940;84;21054;-73
2022/11/01 10:22:26;;;;;;;7.65;2.10;;;;;;;10.25;100.00;100134.41;1710473;82;21616;-73
2022/11/01 10:25:25;;;;;;;4.78;1.92;;;;;;;10.40;100.00;100139.97;1710179;83;21053;-73
2022/11/01 10:27:59;;;;;;;6.17;1.82;;;;;;;10.54;100.00;100126.73;1710200;82;21066;-73
2022/11/01 10:30:26;;;;;;;4.12;1.67;;;;;;;10.58;100.00;100130.03;1714645;82;21019;-74
2022/11/01 10:33:01;;;;;;;5.05;1.60;;;;;;;10.72;100.00;100127.13;1745231;80;21047;-74
2022/11/01 10:35:37;;;;;;;3.42;1.50;;;;;;;10.88;100.00;100121.22;1752551;81;20994;-74
2022/11/01 10:38:27;;;;;;;5.25;1.72;;;;;;;10.93;100.00;100121.25;1749596;81;21057;-74
2022/11/01 10:41:26;;;;;;;6.37;1.67;;;;;;;10.98;100.00;100120.72;1743006;81;20991;-74
2022/11/01 10:43:57;;;;;;;2.17;1.00;;;;;;;11.06;100.00;100120.77;1745774;82;21502;-73
2022/11/01 10:46:28;;;;;;;5.85;1.85;;;;;;;11.02;100.00;100117.50;1714424;82;21123;-74
2022/11/01 10:49:01;;;;;;;4.03;1.75;;;;;;;11.13;100.00;100119.98;1706974;83;21645;-73
2022/11/01 10:51:29;;;;;;;4.42;1.60;;;;;;;11.21;100.00;100114.56;1717344;81;21130;-73
2022/11/01 10:54:01;;;;;;;4.42;2.00;;;;;;;11.23;100.00;100111.84;1751929;82;21025;-74
2022/11/01 10:56:38;;;;;;;4.55;1.70;;;;;;;11.22;100.00;100103.95;1749284;81;21078;-73
2022/11/01 10:59:19;;;;;;;3.72;1.75;;;;;;;11.21;100.00;100108.58;1745946;80;21040;-74
2022/11/01 11:01:45;;;;;;;4.53;1.82;;;;;;;11.22;97.01;100097.14;1746854;81;21322;-65
2022/11/01 11:04:16;;;;;;;4.35;1.80;;;;;;;11.18;96.06;100097.39;1749487;82;21606;-65
2022/11/01 11:06:44;;;;;;;3.83;1.50;;;;;;;11.20;96.61;100101.48;1745431;80;21406;-65
2022/11/01 15:10:51;;;;;;;24.27;11.95;;;;;;;7.78;100.00;99995.08;1781031;79;23006;-68
2022/11/01 15:13:18;;;;;;;24.77;13.72;;;;;;;7.77;100.00;99989.36;1753278;81;21001;-68
2022/11/01 15:16:07;;;;;;;27.22;15.32;;;;;;;7.83;100.00;99993.25;1723091;83;21098;-67
2022/11/01 15:18:36;;;;;;;24.87;14.95;;;;;;;7.87;100.00;99994.41;1720215;83;21022;-68
2022/11/01 15:21:03;;;;;;;24.10;13.60;;;;;;;7.89;100.00;99998.23;1689934;83;21070;-68
2022/11/01 15:23:36;;;;;;;26.95;13.95;;;;;;;7.90;100.00;99992.55;1679668;84;21519;-68
2022/11/01 15:26:06;;;;;;;20.57;9.65;;;;;;;7.92;100.00;99982.83;1676884;83;21051;-68
2022/11/01 15:28:41;;;;;;;17.07;9.00;;;;;;;7.94;100.00;99980.67;1721365;81;21001;-68
2022/11/01 15:31:08;;;;;;;17.15;9.28;;;;;;;7.95;100.00;99984.50;1698243;83;21070;-67
2022/11/01 15:33:35;;;;;;;15.05;9.28;;;;;;;7.97;100.00;99988.34;1692889;83;20960;-68
2022/11/01 15:36:07;;;;;;;;;;;;;;;7.98;100.00;99986.72;1699839;83;21600;-68
2022/11/01 15:38:56;;;;;;;16.17;8.73;;;;;;;8.01;100.00;99986.74;1696779;84;20135;-67
2022/11/01 15:41:30;;;;;;;13.72;7.72;;;;;;;7.95;100.00;99979.61;1673199;83;21003;-68
2022/11/01 15:44:01;;;;;;;20.12;10.13;;;;;;;7.96;100.00;99984.80;1691126;83;21078;-68
2022/11/01 15:46:32;;;;;;;19.55;10.80;;;;;;;7.98;100.00;99981.30;1666240;84;21102;-68
2022/11/01 15:49:09;;;;;;;25.85;14.10;;;;;;;8.01;100.00;99980.79;1694692;83;21619;-67
2022/11/01 15:51:43;;;;;;;21.23;14.17;;;;;;;8.04;100.00;99988.16;1695905;84;21018;-68
2022/11/01 15:54:39;;;;;;;26.82;16.25;;;;;;;8.06;100.00;99997.67;1669764;83;21100;-68
2022/11/01 15:57:24;;;;;;;40.12;21.68;;;;;;;8.07;100.00;99994.43;1695950;84;21096;-68
2022/11/01 16:00:16;;;;;;;37.17;22.52;;;;;;;8.09;100.00;99994.99;1691377;83;21598;-68
2022/11/01 16:03:02;;;;;;;35.33;20.75;;;;;;;8.08;100.00;99990.09;1694278;83;21043;-68
2022/11/01 16:05:33;;;;;;;27.48;16.62;;;;;;;8.08;100.00;99985.23;1697079;83;21122;-68
2022/11/01 16:08:00;;;;;;;22.05;13.62;;;;;;;8.08;100.00;99981.17;1698619;84;21066;-69
2022/11/01 16:10:31;;;;;;;19.52;12.20;;;;;;;8.09;100.00;99970.59;1679623;84;22193;-69
2022/11/01 16:12:57;;;;;;;20.05;12.33;;;;;;;8.09;100.00;99968.70;1673237;85;21617;-68
2022/11/01 16:15:32;;;;;;;27.73;18.15;;;;;;;8.10;100.00;99965.46;1666055;85;21083;-69
2022/11/01 16:18:01;;;;;;;49.35;34.78;;;;;;;8.10;100.00;99957.33;1660210;85;21383;-71
2022/11/01 16:20:33;;;;;;;31.42;21.30;;;;;;;8.11;100.00;99961.69;1646277;86;21067;-68
2022/11/01 16:23:05;;;;;;;46.95;35.28;;;;;;;8.09;100.00;99965.17;1670001;85;21012;-68
2022/11/01 16:25:34;;;;;;;44.73;31.42;;;;;;;8.07;100.00;99961.90;1672756;85;21022;-71
2022/11/01 16:28:12;;;;;;;34.48;22.50;;;;;;;8.04;100.00;99960.52;1666121;85;21048;-70
2022/11/01 16:30:48;;;;;;;27.32;17.02;;;;;;;8.01;100.00;99952.32;1667863;83;21110;-69
2022/11/01 16:33:45;;;;;;;27.77;16.12;;;;;;;7.97;100.00;99945.75;1729223;81;20986;-69
2022/11/01 16:36:25;;;;;;;29.12;15.90;;;;;;;7.95;100.00;99941.13;1720609;81;21129;-67
2022/11/01 16:38:52;;;;;;;24.43;15.00;;;;;;;7.94;100.00;99944.91;1720023;82;21529;-68
2022/11/01 16:41:31;;;;;;;25.88;15.40;;;;;;;7.93;100.00;99943.28;1726990;82;20983;-68
2022/11/01 16:43:59;;;;;;;24.75;15.05;;;;;;;7.94;100.00;99938.66;1725268;81;21022;-68
2022/11/01 16:46:28;;;;;;;28.70;16.60;;;;;;;7.94;100.00;99939.48;1725744;81;20991;-68
2022/11/01 16:49:04;;;;;;;26.73;15.88;;;;;;;7.93;100.00;99940.58;1724606;82;21008;-68
2022/11/01 16:51:32;;;;;;;39.95;21.12;;;;;;;7.93;100.00;99943.81;1722371;82;21049;-68
2022/11/01 16:53:59;;;;;;;79.97;40.83;;;;;;;7.89;100.00;99938.60;1726812;81;21031;-68
2022/11/01 16:56:31;;;;;;;82.45;41.92;;;;;;;7.85;100.00;99936.09;1727878;81;21551;-68
2022/11/01 16:59:01;;;;;;;80.28;42.23;;;;;;;7.82;100.00;99933.89;1725210;81;21039;-69
2022/11/01 17:01:27;;;;;;;70.30;39.33;;;;;;;7.79;100.00;99928.44;1721989;81;21014;-68
2022/11/01 17:03:57;;;;;;;69.50;35.78;;;;;;;7.77;100.00;99929.73;1722205;81;21050;-68
2022/11/01 17:06:25;;;;;;;60.30;35.50;;;;;;;7.73;100.00;99923.17;1720448;81;21015;-68
2022/11/01 17:08:52;;;;;;;53.42;34.00;;;;;;;7.70;100.00;99933.16;1722401;82;21054;-68
2022/11/01 17:11:19;;;;;;;58.40;34.85;;;;;;;7.67;100.00;99922.28;1696500;82;21064;-68
2022/11/01 17:13:48;;;;;;;58.60;34.70;;;;;;;7.65;100.00;99922.26;1706747;83;21667;-68
2022/11/01 17:16:21;;;;;;;68.80;38.45;;;;;;;7.63;100.00;99926.55;1669014;84;21049;-68
2022/11/01 17:18:49;;;;;;;76.65;39.75;;;;;;;7.61;100.00;99921.94;1691735;83;21001;-68
2022/11/01 17:21:16;;;;;;;68.20;38.85;;;;;;;7.64;100.00;99930.92;1695128;84;21066;-68
2022/11/01 17:23:42;;;;;;;48.83;28.62;;;;;;;7.71;100.00;99928.03;1704593;83;21017;-69
2022/11/01 17:26:09;;;;;;;;;;;;;;;7.70;100.00;99916.90;1699663;83;21062;-68
2022/11/01 17:28:36;;;;;;;72.70;44.47;;;;;;;7.68;100.00;99913.62;1695649;84;20105;-68
2022/11/01 17:31:02;;;;;;;71.20;43.83;;;;;;;7.54;100.00;99903.67;1699210;84;21768;-68
2022/11/01 17:33:29;;;;;;;63.75;39.75;;;;;;;7.48;100.00;99894.63;1696110;83;21553;-68
2022/11/01 17:35:57;;;;;;;;;;;;;;;7.46;100.00;99891.89;1695559;83;21617;-68
2022/11/01 17:38:27;;;;;;;62.78;36.13;;;;;;;7.41;100.00;99892.63;1696732;83;20156;-69
2022/11/01 17:40:56;;;;;;;55.45;33.63;;;;;;;7.31;100.00;99888.41;1693303;83;21058;-68
2022/11/01 17:43:22;;;;;;;53.10;31.10;;;;;;;7.31;100.00;99892.47;1698420;83;21597;-68
2022/11/01 17:45:49;;;;;;;50.80;31.00;;;;;;;7.29;100.00;99885.14;1698101;84;21070;-68
2022/11/01 17:48:16;;;;;;;49.50;30.90;;;;;;;7.30;100.00;99885.94;1702026;83;21046;-69
2022/11/01 17:50:43;;;;;;;49.98;29.98;;;;;;;7.30;100.00;99893.53;1685326;84;21113;-68
2022/11/01 17:53:11;;;;;;;47.70;29.32;;;;;;;7.30;100.00;99896.23;1697602;83;21553;-68
2022/11/01 17:55:38;;;;;;;50.78;31.20;;;;;;;7.31;100.00;99897.06;1692691;84;21066;-68
2022/11/01 17:58:05;;;;;;;47.85;27.58;;;;;;;7.31;100.00;99897.89;1692212;83;21098;-69
2022/11/01 18:00:32;;;;;;;41.68;24.85;;;;;;;7.31;100.00;99895.70;1696545;84;21581;-68
2022/11/01 18:02:58;;;;;;;;;;;;;;;7.29;100.00;99900.56;1700384;83;21051;-68
2022/11/01 18:05:25;;;;;;;47.58;26.35;;;;;;;7.27;100.00;99895.37;1695885;82;20136;-68
2022/11/01 18:07:53;;;;;;;44.05;25.70;;;;;;;7.17;100.00;99895.22;1700621;82;21436;-68
2022/11/01 18:10:44;;;;;;;47.33;25.60;;;;;;;7.16;100.00;99890.86;1712486;81;21070;-68
2022/11/01 18:13:50;;;;;;;42.73;25.10;;;;;;;7.14;100.00;99894.36;1728288;81;21007;-69
2022/11/01 18:16:30;;;;;;;37.13;23.55;;;;;;;7.13;100.00;99885.12;1731943;82;21050;-69
2022/11/01 18:19:21;;;;;;;39.60;23.55;;;;;;;7.11;100.00;99884.55;1734328;81;21094;-69
2022/11/01 18:22:03;;;;;;;39.00;20.92;;;;;;;7.10;100.00;99883.73;1738418;81;21035;-66
2022/11/01 18:25:02;;;;;;;36.23;21.50;;;;;;;7.10;100.00;99886.44;1736969;82;21099;-67
2022/11/01 18:27:36;;;;;;;36.25;21.35;;;;;;;7.10;100.00;99881.02;1735608;81;21011;-66
2022/11/01 18:30:14;;;;;;;39.67;21.93;;;;;;;7.09;100.00;99881.26;1741477;81;21051;-65
2022/11/01 18:32:51;;;;;;;35.45;19.92;;;;;;;7.08;100.00;99880.47;1737855;81;20952;-64
2022/11/01 18:35:37;;;;;;;34.95;20.65;;;;;;;7.08;100.00;99883.17;1734476;81;21039;-66
2022/11/01 18:38:21;;;;;;;36.73;21.42;;;;;;;7.08;100.00;99887.76;1731295;81;21003;-66
2022/11/01 18:41:01;;;;;;;32.08;18.55;;;;;;;7.04;100.00;99882.55;1724896;81;21090;-66
2022/11/01 18:43:33;;;;;;;37.38;20.72;;;;;;;7.04;100.00;99877.95;1694266;83;21048;-66
2022/11/01 18:46:01;;;;;;;34.13;20.92;;;;;;;7.08;100.00;99878.28;1728255;82;21138;-65
2022/11/01 18:48:28;;;;;;;38.00;20.15;;;;;;;7.10;100.00;99874.25;1732473;81;21102;-66
2022/11/01 18:51:01;;;;;;;34.88;22.35;;;;;;;7.06;100.00;99878.52;1719279;81;21062;-65
2022/11/01 18:53:28;;;;;;;38.17;22.00;;;;;;;7.02;100.00;99870.59;1731641;82;21593;-65
2022/11/01 18:55:58;;;;;;;41.92;22.50;;;;;;;6.97;100.00;99872.70;1711605;82;21231;-65
2022/11/01 18:58:27;;;;;;;41.68;24.57;;;;;;;6.94;100.00;99871.02;1726160;81;21102;-65
2022/11/01 19:01:08;;;;;;;44.25;24.55;;;;;;;6.91;100.00;99872.84;1745969;80;21166;-66
2022/11/01 19:03:36;;;;;;;42.58;25.08;;;;;;;6.88;100.00;99880.09;1731513;81;21114;-65
2022/11/01 19:06:21;;;;;;;;;;;;;;;6.83;100.00;99878.14;1731245;81;21087;-65
2022/11/01 19:08:57;;;;;;;43.98;24.60;;;;;;;6.78;100.00;99876.69;1730040;82;20124;-66
2022/11/01 19:11:27;;;;;;;54.13;31.80;;;;;;;6.66;100.00;99873.20;1727017;81;21060;-66
2022/11/01 19:13:58;;;;;;;50.35;28.80;;;;;;;6.62;100.00;99855.02;1726775;81;21064;-65
2022/11/01 20:51:07;;;;;;;44.00;21.35;;;;;;;5.10;100.00;99826.67;1857483;75;23318;-67
2022/11/01 20:53:33;;;;;;;39.27;21.68;;;;;;;5.19;100.00;99834.18;1838046;77;20959;-67
2022/11/01 20:56:01;;;;;;;41.45;21.37;;;;;;;5.40;100.00;99832.23;1857451;76;21089;-67
2022/11/01 20:58:27;;;;;;;46.45;25.82;;;;;;;5.58;100.00;99818.30;1839478;76;21333;-67
2022/11/01 21:00:55;;;;;;;43.63;22.42;;;;;;;5.70;100.00;99811.84;1841740;77;21039;-64
2022/11/01 21:03:23;;;;;;;43.00;23.77;;;;;;;5.75;100.00;99811.93;1840571;76;21009;-65
2022/11/01 21:05:50;;;;;;;40.12;22.95;;;;;;;5.80;100.00;99804.47;1845353;77;21086;-65
2022/11/01 21:08:25;;;;;;;42.38;23.02;;;;;;;5.83;100.00;99808.04;1769110;79;21492;-65
2022/11/01 21:10:57;;;;;;;40.65;22.42;;;;;;;5.87;100.00;99803.31;1754559;80;21146;-65
2022/11/01 21:13:31;;;;;;;38.23;21.12;;;;;;;5.89;100.00;99801.18;1781372;80;21011;-68
2022/11/01 21:16:00;;;;;;;40.38;21.45;;;;;;;5.91;100.00;99796.38;1759159;80;21961;-68
2022/11/01 21:18:44;;;;;;;40.17;20.55;;;;;;;5.95;100.00;99792.66;1781890;79;20987;-69
2022/11/01 21:21:25;;;;;;;36.30;19.62;;;;;;;6.03;100.00;99780.09;1772224;80;21046;-67
2022/11/01 21:23:53;;;;;;;38.28;20.00;;;;;;;6.16;100.00;99780.36;1780453;79;21052;-67
2022/11/01 21:26:23;;;;;;;39.38;20.85;;;;;;;6.19;100.00;99779.87;1761436;80;21114;-68
2022/11/01 21:29:05;;;;;;;34.73;19.98;;;;;;;6.19;100.00;99787.45;1770184;80;21015;-67
2022/11/01 21:31:33;;;;;;;35.65;19.95;;;;;;;6.18;100.00;99776.86;1752926;80;21103;-67
2022/11/01 21:34:14;;;;;;;35.52;20.17;;;;;;;6.16;100.00;99781.70;1770354;79;21472;-68
2022/11/01 21:36:44;;;;;;;48.55;28.52;;;;;;;6.17;100.00;99777.39;1805547;79;21092;-67
2022/11/01 21:39:14;;;;;;;38.83;20.60;;;;;;;6.17;100.00;99786.85;1800077;79;20998;-68
2022/11/01 21:41:51;;;;;;;36.45;21.73;;;;;;;6.14;100.00;99783.28;1785575;79;21033;-67
2022/11/01 21:44:42;;;;;;;38.38;23.12;;;;;;;6.12;100.00;99790.00;1797899;79;21932;-67
2022/11/01 21:47:18;;;;;;;38.40;21.50;;;;;;;6.10;100.00;99791.58;1793939;77;21025;-68
2022/11/01 21:49:44;;;;;;;42.40;24.43;;;;;;;6.10;100.00;99796.98;1810418;79;21053;-68
2022/11/01 21:52:11;;;;;;;;;;;;;;;6.02;100.00;99779.83;1792028;79;21025;-68
2022/11/01 21:54:38;;;;;;;45.28;27.32;;;;;;;5.96;100.00;99767.26;1796651;79;20117;-68
2022/11/01 21:57:07;;;;;;;64.42;34.60;;;;;;;5.84;100.00;99769.17;1801946;79;21006;-68
2022/11/01 21:59:33;;;;;;;150.82;82.42;;;;;;;5.77;100.00;99759.03;1796805;79;20998;-67
2022/11/01 22:02:00;;;;;;;57.27;34.50;;;;;;;5.70;100.00;99747.02;1806707;79;21045;-68
2022/11/01 22:04:28;;;;;;;69.00;37.25;;;;;;;5.63;100.00;99746.86;1784504;79;21339;-67
2022/11/01 22:07:00;;;;;;;162.82;87.30;;;;;;;5.61;100.00;99746.27;1790092;79;21013;-68